02:17
Airports
History
Links
Donate
Help keep this website running!
PayPal
Bitcoin
This page is community maintained. The information is intended for PC simulator navigation or reference.
Always use approved charts for navigation.
SBBP
Aeroporto Estadual Arthur Siqueira
Aeroporto Estadual Arthur Siqueira (SBBP)
Bragança Paulista, São Paulo, Brazil (12916)
(U)
Lat/Lng:22° 58' 45" S / 46° 32' 15" W
-22.979167 / -46.5375
Elevation:2887'ft / 880mMSL
ID / ICAO:SBBP
Runways:1
Longest:16-34
Asphalt 1,223m / 4,013ft
Nearby Weather02:00 GMT 2017-12-11
Nearby weather at SBGR, Sao Paulo - Guarulhos located 31.6 nautical miles from SBBP
Altimeter: 29.80
Visibility: 2.5 statute miles
Wind: 3 knots (from 080°)
Temp: 20°c / 68°f
Humidity: 100.0%

METAR: SBGR 110200Z 08003KT 4000 BR SCT008 20/20 Q1009

(Powered by phpweather)
Runway 16 / 34
Dimensions:1223.1 x 29.9m 4013' x 98'ft
Surface:Asphalt
Runway 16 [A]Runway 34 [B]
Heading:141°TH 321°TH
Lat:
Lng:
22° 58' 29.42"S
46° 32' 28.37"W
22° 59' 0.58"S
46° 32' 1.63"W
User Notes and Comments
22° 58' 45" S / 46° 32' 15" W
Distance To
Airport ID:
Nearby Airports
(U) AEROPORTO ESTADUAL ARTHUR SIQUEIRA 0.0 NM
SDBP NE 46°
(U) Fazenda Vale Eldorado 6.4 NM
SDVH WSW 254°
4 Atibaia 10.5 NM
SDTB SSW 192°
(C) Jundiai 29.4 NM
SBJD WSW 241°
(C) Sao Paulo - Guarulhos 31.6 NM
SBGR ( WX ) S 171°
4 Monte Verde 32.9 NM
SNEJ ENE 75°
(U) Tres Marias 36.9 NM
SDWL WSW 246°
VFR Chart
Flight Planning at SkyVector.com